createdAt,value
2018-06-15T00:01:12.561Z,99.90
2018-06-15T00:03:41.644Z,99.90
2018-06-15T00:06:10.723Z,99.90
2018-06-15T00:08:39.833Z,99.90
2018-06-15T00:11:08.935Z,99.90
2018-06-15T00:13:38.022Z,99.90
2018-06-15T00:16:07.091Z,99.90
2018-06-15T00:18:36.180Z,99.90
2018-06-15T00:21:05.266Z,99.90
2018-06-15T00:23:34.357Z,99.90
2018-06-15T00:26:03.463Z,99.90
2018-06-15T00:28:32.551Z,99.90
2018-06-15T00:31:01.834Z,99.90
2018-06-15T00:33:30.954Z,99.90
2018-06-15T00:36:00.032Z,99.90
2018-06-15T00:38:29.135Z,99.90
2018-06-15T00:40:58.218Z,99.90
2018-06-15T00:43:27.287Z,99.90
2018-06-15T00:45:56.352Z,99.90
2018-06-15T00:48:25.599Z,99.90
2018-06-15T00:50:54.682Z,99.90
2018-06-15T00:53:23.761Z,99.90
2018-06-15T00:55:52.821Z,99.90
2018-06-15T00:58:21.901Z,99.90
2018-06-15T01:00:51.080Z,99.90
2018-06-15T01:03:20.213Z,99.90
2018-06-15T01:05:49.311Z,99.90
2018-06-15T01:08:18.382Z,99.90
2018-06-15T01:10:47.478Z,99.90
2018-06-15T01:13:16.563Z,99.90
2018-06-15T01:15:45.627Z,99.90
2018-06-15T01:18:14.685Z,99.90
2018-06-15T01:20:43.810Z,99.90
2018-06-15T01:23:12.943Z,99.90
2018-06-15T01:25:42.040Z,99.90
2018-06-15T01:28:11.107Z,99.90
2018-06-15T01:33:08.883Z,99.90
2018-06-15T01:35:37.967Z,99.90
2018-06-15T01:38:07.024Z,99.90
2018-06-15T01:40:36.091Z,99.90
2018-06-15T01:43:05.190Z,99.90
2018-06-15T01:45:34.224Z,99.90
2018-06-15T01:48:03.294Z,99.90
2018-06-15T01:50:32.352Z,99.90
2018-06-15T01:53:01.414Z,99.90
2018-06-15T01:55:30.547Z,99.90
2018-06-15T01:57:59.663Z,99.90
2018-06-15T02:00:28.763Z,99.90
2018-06-15T02:02:57.852Z,99.90
2018-06-15T02:05:26.971Z,99.90
2018-06-15T02:07:56.052Z,99.90
2018-06-15T02:10:25.132Z,99.90
2018-06-15T02:12:56.328Z,99.90
2018-06-15T02:15:25.419Z,99.90
2018-06-15T02:17:54.491Z,99.90
2018-06-15T02:20:23.599Z,99.90
2018-06-15T02:22:52.666Z,99.90
2018-06-15T02:25:21.746Z,99.90
2018-06-15T02:27:50.814Z,99.90
2018-06-15T02:30:19.907Z,99.90
2018-06-15T02:32:48.970Z,99.90
2018-06-15T02:35:18.093Z,99.90
2018-06-15T02:37:47.175Z,99.90
2018-06-15T02:40:16.298Z,99.90
2018-06-15T02:42:45.403Z,99.90
2018-06-15T02:45:14.518Z,99.90
2018-06-15T02:47:43.569Z,99.90
2018-06-15T02:50:12.655Z,99.90
2018-06-15T02:52:41.741Z,99.90
2018-06-15T02:55:13.284Z,99.90
2018-06-15T02:57:42.407Z,99.90
2018-06-15T03:00:11.447Z,99.90
2018-06-15T03:02:40.539Z,99.90
2018-06-15T03:05:09.624Z,99.90
2018-06-15T03:10:07.365Z,99.90
2018-06-15T03:12:36.476Z,99.90
2018-06-15T03:15:05.899Z,99.90
2018-06-15T03:17:35.091Z,99.90
2018-06-15T03:20:04.405Z,99.90
2018-06-15T03:22:33.477Z,99.90
2018-06-15T03:25:02.611Z,99.90
2018-06-15T03:27:32.072Z,99.90
2018-06-15T03:30:01.133Z,99.90
2018-06-15T03:32:30.223Z,99.90
2018-06-15T03:34:59.510Z,99.90
2018-06-15T03:37:28.595Z,99.90
2018-06-15T03:39:57.698Z,99.90
2018-06-15T03:42:26.784Z,99.90
2018-06-15T03:44:55.867Z,99.90
2018-06-15T03:47:24.970Z,99.90
2018-06-15T03:49:54.020Z,99.90
2018-06-15T03:52:23.067Z,99.90
2018-06-15T03:54:52.158Z,99.90
2018-06-15T03:57:21.208Z,99.90
2018-06-15T03:59:50.299Z,99.90
2018-06-15T04:02:19.367Z,99.90
2018-06-15T04:04:48.440Z,99.90
2018-06-15T04:07:17.524Z,99.90
2018-06-15T04:09:46.578Z,99.90
2018-06-15T04:12:15.673Z,99.90
2018-06-15T04:14:44.746Z,99.90
2018-06-15T04:17:13.827Z,99.90
2018-06-15T04:19:42.946Z,99.90
2018-06-15T04:22:12.027Z,99.90
2018-06-15T04:24:41.071Z,99.90
2018-06-15T04:27:10.180Z,99.90
2018-06-15T04:32:08.164Z,99.90
2018-06-15T04:34:37.243Z,99.90
2018-06-15T04:37:06.335Z,99.90
2018-06-15T04:39:35.460Z,99.90
2018-06-15T04:42:04.550Z,99.90
2018-06-15T04:44:33.955Z,99.90
2018-06-15T04:47:03.052Z,99.90
2018-06-15T04:49:32.119Z,99.90
2018-06-15T04:54:30.119Z,99.90
2018-06-15T04:56:59.188Z,99.90
2018-06-15T04:59:28.595Z,99.90
2018-06-15T05:01:57.663Z,99.90
2018-06-15T05:04:26.726Z,99.90
2018-06-15T05:06:55.792Z,99.90
2018-06-15T05:09:24.825Z,99.90
2018-06-15T05:11:53.936Z,99.90
2018-06-15T05:14:23.035Z,99.90
2018-06-15T05:16:52.103Z,99.90
2018-06-15T05:19:21.252Z,99.90
2018-06-15T05:21:50.343Z,99.90
2018-06-15T05:24:19.419Z,99.90
2018-06-15T05:26:48.544Z,99.90
2018-06-15T05:29:17.623Z,99.90
2018-06-15T05:31:46.675Z,99.90
2018-06-15T05:34:15.743Z,99.90
2018-06-15T05:39:13.548Z,99.90
2018-06-15T05:41:42.700Z,99.90
2018-06-15T05:44:11.815Z,99.90
2018-06-15T05:46:40.875Z,99.90
2018-06-15T05:49:09.966Z,99.90
2018-06-15T05:51:39.023Z,99.90
2018-06-15T05:54:08.104Z,99.90
2018-06-15T05:56:37.406Z,99.90
2018-06-15T05:59:06.487Z,99.90
2018-06-15T06:01:35.574Z,99.90
2018-06-15T06:04:04.844Z,99.90
2018-06-15T06:06:33.842Z,99.90
2018-06-15T06:09:03.023Z,99.90
2018-06-15T06:11:32.184Z,99.90
2018-06-15T06:14:01.272Z,99.90
2018-06-15T06:18:59.099Z,99.90
2018-06-15T06:21:28.222Z,99.90
2018-06-15T06:23:57.554Z,99.90
2018-06-15T06:26:26.721Z,99.90
2018-06-15T06:28:55.815Z,99.90
2018-06-15T06:31:24.863Z,99.90
2018-06-15T06:33:53.963Z,99.90
2018-06-15T06:36:23.057Z,99.90
2018-06-15T06:38:52.155Z,99.90
2018-06-15T06:41:21.649Z,99.90
2018-06-15T06:43:50.775Z,99.90
2018-06-15T06:46:19.869Z,99.90
2018-06-15T06:48:48.983Z,99.90
2018-06-15T06:51:18.059Z,99.90
2018-06-15T06:53:47.171Z,99.90
2018-06-15T06:56:16.263Z,99.90
2018-06-15T06:58:45.347Z,99.90
2018-06-15T07:01:14.461Z,99.90
2018-06-15T07:03:43.508Z,99.90
2018-06-15T07:06:12.641Z,99.90
2018-06-15T07:08:41.909Z,99.90
2018-06-15T07:11:10.992Z,99.90
2018-06-15T07:13:40.191Z,99.90
2018-06-15T07:16:09.291Z,99.90
2018-06-15T07:18:38.382Z,99.90
2018-06-15T07:21:07.494Z,99.90
2018-06-15T07:23:36.628Z,99.90
2018-06-15T07:26:05.717Z,99.90
2018-06-15T07:28:34.795Z,99.90
2018-06-15T07:31:03.939Z,99.90
2018-06-15T07:33:33.073Z,99.90
2018-06-15T07:36:02.124Z,99.90
2018-06-15T07:38:31.200Z,99.90
2018-06-15T07:41:00.415Z,99.90
2018-06-15T07:43:29.487Z,99.90
2018-06-15T07:45:58.635Z,99.90
2018-06-15T07:48:27.718Z,99.90
2018-06-15T07:50:56.831Z,99.90
2018-06-15T07:53:25.935Z,99.90
2018-06-15T07:55:54.984Z,99.90
2018-06-15T07:58:24.063Z,99.90
2018-06-15T08:00:53.151Z,99.90
2018-06-15T08:03:22.244Z,99.90
2018-06-15T08:05:51.337Z,99.90
2018-06-15T08:08:20.468Z,99.90
2018-06-15T08:10:49.564Z,99.90
2018-06-15T08:13:18.658Z,99.90
2018-06-15T08:15:47.738Z,99.90
2018-06-15T08:18:16.770Z,99.90
2018-06-15T08:20:45.851Z,99.90
2018-06-15T08:23:14.928Z,99.90
2018-06-15T08:25:44.011Z,99.90
2018-06-15T08:28:13.084Z,99.90
2018-06-15T08:30:42.215Z,99.90
2018-06-15T08:33:11.286Z,99.90
2018-06-15T08:35:40.372Z,99.90
2018-06-15T08:38:09.443Z,99.90
2018-06-15T08:40:38.563Z,99.90
2018-06-15T08:43:07.758Z,99.90
2018-06-15T08:45:36.844Z,99.90
2018-06-15T08:48:05.920Z,99.90
2018-06-15T08:50:35.025Z,99.90
2018-06-15T08:53:04.195Z,99.90
2018-06-15T08:55:33.370Z,99.90
2018-06-15T08:58:02.445Z,99.90
2018-06-15T09:00:31.515Z,99.90
2018-06-15T09:03:00.644Z,99.90
2018-06-15T09:05:29.711Z,99.90
2018-06-15T09:07:58.893Z,99.90
2018-06-15T09:10:28.084Z,99.90
2018-06-15T09:12:57.149Z,99.90
2018-06-15T09:15:26.279Z,99.90
2018-06-15T09:17:55.382Z,99.90
2018-06-15T09:20:24.474Z,99.90
2018-06-15T09:22:53.558Z,99.90
2018-06-15T09:25:22.648Z,99.90
2018-06-15T09:27:51.721Z,99.90
2018-06-15T09:30:20.798Z,99.90
2018-06-15T09:32:49.895Z,99.90
2018-06-15T09:35:19.009Z,99.90
2018-06-15T09:37:48.201Z,99.90
2018-06-15T09:40:17.503Z,99.90
2018-06-15T09:42:46.590Z,99.90
2018-06-15T09:45:15.659Z,99.90
2018-06-15T09:47:44.816Z,99.90
2018-06-15T09:50:13.959Z,99.90
2018-06-15T09:52:43.051Z,99.90
2018-06-15T09:55:12.176Z,99.90
2018-06-15T09:57:41.343Z,99.90
2018-06-15T10:00:10.419Z,99.90
2018-06-15T10:02:39.570Z,99.90
2018-06-15T10:05:08.663Z,99.90
2018-06-15T10:07:37.769Z,99.90
2018-06-15T10:10:06.868Z,99.90
2018-06-15T10:12:35.963Z,99.90
2018-06-15T10:20:03.083Z,99.90
2018-06-15T10:22:32.206Z,99.90
2018-06-15T10:25:01.304Z,99.90
2018-06-15T10:27:30.383Z,99.90
2018-06-15T10:29:59.467Z,99.90
2018-06-15T10:32:28.627Z,99.90
2018-06-15T10:34:57.787Z,99.90
2018-06-15T10:37:26.904Z,99.90
2018-06-15T10:39:56.094Z,99.90
2018-06-15T10:42:25.188Z,99.90
2018-06-15T10:44:54.264Z,99.90
2018-06-15T10:47:23.390Z,99.90
2018-06-15T10:49:52.671Z,99.90
2018-06-15T10:52:21.833Z,99.90
2018-06-15T10:54:50.936Z,99.90
2018-06-15T10:57:20.004Z,99.90
2018-06-15T10:59:49.106Z,99.80
2018-06-15T11:02:18.276Z,99.40
2018-06-15T11:04:47.294Z,98.80
2018-06-15T11:07:17.339Z,99.20
2018-06-15T11:09:46.455Z,99.50
2018-06-15T11:12:15.587Z,99.70
2018-06-15T11:14:44.699Z,99.90
2018-06-15T11:17:13.840Z,99.90
2018-06-15T11:19:42.976Z,99.90
2018-06-15T11:22:12.071Z,99.90
2018-06-15T11:24:41.162Z,99.90
2018-06-15T11:27:10.280Z,99.90
2018-06-15T11:29:39.383Z,99.90
2018-06-15T11:32:08.531Z,99.90
2018-06-15T11:34:37.639Z,99.90
2018-06-15T11:37:06.790Z,99.90
2018-06-15T11:39:35.860Z,99.90
2018-06-15T11:42:05.012Z,99.50
2018-06-15T11:44:34.097Z,99.70
2018-06-15T11:47:03.236Z,99.50
2018-06-15T11:52:01.059Z,99.20
2018-06-15T11:54:30.175Z,98.70
2018-06-15T11:56:59.267Z,97.80
2018-06-15T11:59:28.331Z,97.70
2018-06-15T12:01:57.434Z,97.60
2018-06-15T12:04:26.543Z,97.10
2018-06-15T12:06:55.627Z,96.60
2018-06-15T12:09:24.707Z,96.20
2018-06-15T12:11:53.823Z,96.00
2018-06-15T12:14:22.935Z,95.60
2018-06-15T12:19:20.744Z,95.00
2018-06-15T12:21:49.869Z,95.00
2018-06-15T12:24:18.980Z,95.10
2018-06-15T12:26:48.047Z,94.60
2018-06-15T12:29:17.149Z,94.40
2018-06-15T12:31:46.223Z,94.00
2018-06-15T12:34:15.385Z,93.70
2018-06-15T12:36:44.459Z,93.70
2018-06-15T12:39:13.606Z,93.10
2018-06-15T12:41:42.767Z,92.90
2018-06-15T12:44:11.845Z,92.90
2018-06-15T12:46:40.926Z,92.70
2018-06-15T12:49:10.128Z,92.70
2018-06-15T12:51:39.291Z,93.10
2018-06-15T12:54:08.415Z,92.40
2018-06-15T12:56:37.488Z,92.30
2018-06-15T12:59:06.596Z,92.60
2018-06-15T13:01:35.686Z,93.20
2018-06-15T13:04:04.821Z,93.60
2018-06-15T13:06:34.085Z,93.30
2018-06-15T13:09:03.241Z,92.50
2018-06-15T13:11:32.345Z,92.50
2018-06-15T13:14:01.431Z,92.20
2018-06-15T13:16:30.562Z,91.70
2018-06-15T13:18:59.651Z,91.50
2018-06-15T13:21:28.771Z,90.90
2018-06-15T13:23:58.567Z,90.30
2018-06-15T13:26:27.715Z,90.30
2018-06-15T13:28:56.904Z,90.50
2018-06-15T13:31:26.101Z,90.60
2018-06-15T13:33:55.285Z,90.10
2018-06-15T13:36:24.771Z,89.60
2018-06-15T13:38:53.935Z,89.30
2018-06-15T13:41:23.095Z,89.10
2018-06-15T13:43:52.239Z,88.70
2018-06-15T13:46:21.363Z,89.20
2018-06-15T13:48:50.451Z,89.40
2018-06-15T13:51:19.525Z,88.80
2018-06-15T13:53:48.637Z,89.00
2018-06-15T13:56:17.772Z,87.50
2018-06-15T13:58:46.991Z,87.80
2018-06-15T14:01:16.116Z,88.10
2018-06-15T14:03:45.201Z,88.10
2018-06-15T14:06:14.347Z,88.50
2018-06-15T14:08:43.505Z,87.80
2018-06-15T14:11:12.634Z,87.30
2018-06-15T14:13:41.698Z,87.80
2018-06-15T14:16:10.879Z,86.90
2018-06-15T14:18:40.000Z,88.10
2018-06-15T14:21:09.068Z,87.20
2018-06-15T14:23:38.211Z,86.00
2018-06-15T14:26:07.290Z,86.00
2018-06-15T14:28:36.358Z,85.80
2018-06-15T14:31:05.460Z,84.90
2018-06-15T14:33:34.556Z,84.00
2018-06-15T14:36:03.828Z,83.50
2018-06-15T14:38:32.970Z,81.30
2018-06-15T14:41:02.051Z,82.80
2018-06-15T14:43:31.103Z,80.30
2018-06-15T14:46:00.271Z,81.50
2018-06-15T14:48:29.363Z,79.50
2018-06-15T14:50:58.467Z,80.50
2018-06-15T14:53:27.543Z,80.00
2018-06-15T14:55:56.639Z,79.50
2018-06-15T14:58:25.731Z,79.90
2018-06-15T15:00:54.837Z,79.50
2018-06-15T15:03:23.903Z,80.80
2018-06-15T15:08:21.672Z,78.40
2018-06-15T15:10:50.776Z,76.90
2018-06-15T15:13:19.936Z,75.00
2018-06-15T15:15:49.022Z,74.50
2018-06-15T15:18:18.142Z,73.30
2018-06-15T15:20:47.192Z,72.20
2018-06-15T15:23:16.491Z,69.60
2018-06-15T15:25:46.208Z,66.90
2018-06-15T15:28:15.293Z,63.80
2018-06-15T15:30:44.387Z,59.10
2018-06-15T15:33:13.435Z,57.40
2018-06-15T15:35:42.582Z,55.60
2018-06-15T15:38:11.678Z,56.50
2018-06-15T15:40:40.815Z,56.60
2018-06-15T15:43:09.941Z,55.40
2018-06-15T15:45:39.310Z,55.70
2018-06-15T15:48:08.403Z,55.10
2018-06-15T15:50:37.508Z,53.70
2018-06-15T15:53:06.566Z,53.30
2018-06-15T15:55:35.690Z,52.60
2018-06-15T15:58:04.798Z,53.10
2018-06-15T16:00:33.874Z,54.30
2018-06-15T16:03:02.931Z,53.70
2018-06-15T16:05:32.042Z,54.20
2018-06-15T16:08:01.114Z,54.10
2018-06-15T16:10:30.180Z,53.40
2018-06-15T16:12:59.279Z,53.20
2018-06-15T16:15:28.355Z,52.70
2018-06-15T16:17:57.428Z,52.10
2018-06-15T16:20:26.502Z,51.40
2018-06-15T16:22:55.603Z,50.90
2018-06-15T16:25:24.667Z,50.10
2018-06-15T16:27:53.740Z,49.50
2018-06-15T16:30:22.807Z,48.50
2018-06-15T16:32:51.908Z,47.60
2018-06-15T16:35:20.984Z,48.00
2018-06-15T16:37:50.051Z,47.70
2018-06-15T16:40:19.191Z,47.80
2018-06-15T16:42:48.269Z,48.20
2018-06-15T16:45:17.347Z,48.20
2018-06-15T16:47:46.486Z,48.40
2018-06-15T16:50:15.587Z,49.20
2018-06-15T16:52:44.672Z,48.50
2018-06-15T16:55:13.775Z,48.20
2018-06-15T16:57:42.843Z,47.40
2018-06-15T17:00:11.914Z,47.10
2018-06-15T17:02:40.991Z,44.50
2018-06-15T17:05:10.099Z,44.10
2018-06-15T17:07:39.191Z,44.40
2018-06-15T17:10:08.238Z,44.50
2018-06-15T17:12:37.334Z,44.80
2018-06-15T17:15:06.410Z,46.40
2018-06-15T17:17:35.496Z,47.40
2018-06-15T17:20:04.650Z,47.40
2018-06-15T17:22:33.720Z,46.90
2018-06-15T17:25:02.825Z,46.60
2018-06-15T17:27:32.100Z,47.70
2018-06-15T17:30:01.364Z,48.10
2018-06-15T17:32:30.598Z,48.90
2018-06-15T17:34:59.988Z,50.20
2018-06-15T17:37:29.088Z,51.70
2018-06-15T17:39:58.189Z,50.40
2018-06-15T17:42:27.335Z,51.40
2018-06-15T17:44:56.519Z,52.10
2018-06-15T17:47:25.603Z,52.50
2018-06-15T17:49:54.689Z,53.00
2018-06-15T17:52:23.768Z,53.50
2018-06-15T17:54:53.100Z,53.60
2018-06-15T17:57:22.187Z,54.10
2018-06-15T17:59:51.374Z,54.70
2018-06-15T18:02:20.376Z,55.30
2018-06-15T18:04:49.463Z,56.10
2018-06-15T18:07:18.559Z,57.40
2018-06-15T18:09:47.899Z,57.20
2018-06-15T18:12:16.979Z,57.20
2018-06-15T18:14:46.115Z,58.80
2018-06-15T18:17:15.206Z,58.80
2018-06-15T18:19:44.280Z,59.60
2018-06-15T18:22:13.712Z,60.10
2018-06-15T18:24:42.785Z,61.00
2018-06-15T18:27:11.870Z,62.00
2018-06-15T18:29:40.920Z,63.00
2018-06-15T18:32:09.992Z,64.10
2018-06-15T18:34:39.098Z,65.50
2018-06-15T18:37:08.197Z,67.30
2018-06-15T18:39:37.379Z,68.70
2018-06-15T18:42:06.677Z,70.10
2018-06-15T18:44:35.931Z,70.50
2018-06-15T18:47:05.083Z,71.20
2018-06-15T18:49:34.275Z,71.60
2018-06-15T18:52:03.380Z,73.10
2018-06-15T18:54:32.600Z,74.20
2018-06-15T18:57:01.730Z,75.40
2018-06-15T18:59:30.876Z,76.00
2018-06-15T19:02:00.100Z,76.90
2018-06-15T19:04:29.317Z,79.30
2018-06-15T19:06:58.508Z,81.50
2018-06-15T19:09:28.024Z,82.90
2018-06-15T19:11:57.187Z,84.40
2018-06-15T19:14:26.367Z,86.20
2018-06-15T19:16:55.561Z,87.30
2018-06-15T19:19:24.849Z,87.50
2018-06-15T19:21:53.994Z,88.30
2018-06-15T19:24:23.754Z,88.90
2018-06-15T19:26:52.940Z,89.10
2018-06-15T19:31:50.852Z,90.70
2018-06-15T19:34:19.974Z,90.90
2018-06-15T19:36:49.089Z,91.30
2018-06-15T19:39:19.343Z,91.80
2018-06-15T19:41:48.444Z,93.20
2018-06-15T19:44:17.568Z,93.30
2018-06-15T19:46:46.967Z,93.60
2018-06-15T19:49:16.148Z,94.00
2018-06-15T19:51:45.242Z,94.30
2018-06-15T19:54:14.320Z,94.80
2018-06-15T19:56:43.401Z,95.20
2018-06-15T19:59:12.623Z,95.60
2018-06-15T20:01:41.707Z,95.90
2018-06-15T20:04:10.980Z,96.30
2018-06-15T20:06:40.073Z,96.60
2018-06-15T20:09:09.398Z,97.00
2018-06-15T20:11:38.801Z,97.20
2018-06-15T20:14:08.009Z,97.40
2018-06-15T20:16:37.167Z,97.70
2018-06-15T20:19:06.310Z,98.30
2018-06-15T20:21:35.386Z,98.40
2018-06-15T20:24:04.958Z,98.90
2018-06-15T20:26:34.103Z,99.20
2018-06-15T20:29:03.348Z,99.40
2018-06-15T20:31:32.522Z,99.90
2018-06-15T20:34:01.648Z,99.90
2018-06-15T20:36:30.881Z,99.90
2018-06-15T20:38:59.996Z,99.90
2018-06-15T20:41:29.172Z,99.90
2018-06-15T20:43:58.511Z,99.90
2018-06-15T20:46:27.695Z,99.90
2018-06-15T20:48:56.794Z,99.90
2018-06-15T20:51:25.839Z,99.90
2018-06-15T20:53:54.919Z,99.90
2018-06-15T20:56:24.149Z,99.90
2018-06-15T20:58:53.367Z,99.90
2018-06-15T21:01:22.766Z,99.90
2018-06-15T21:03:52.021Z,99.90
2018-06-15T21:06:21.283Z,99.90
2018-06-15T21:08:50.369Z,99.90
2018-06-15T21:11:19.409Z,99.90
2018-06-15T21:13:48.512Z,99.90
2018-06-15T21:16:17.583Z,99.90
2018-06-15T21:18:46.647Z,99.90
2018-06-15T21:21:15.687Z,99.90
2018-06-15T21:23:45.098Z,99.90
2018-06-15T21:26:14.211Z,99.90
2018-06-15T21:28:43.286Z,99.90
2018-06-15T21:31:12.376Z,99.90
2018-06-15T21:33:41.475Z,99.90
2018-06-15T21:36:10.573Z,99.90
2018-06-15T21:38:39.696Z,99.90
2018-06-15T21:41:08.962Z,99.90
2018-06-15T21:43:38.005Z,99.90
2018-06-15T21:46:07.092Z,99.90
2018-06-15T21:48:36.144Z,99.90
2018-06-15T21:51:05.248Z,99.90
2018-06-15T21:53:34.315Z,99.90
2018-06-15T21:56:03.375Z,99.90
2018-06-15T21:58:32.462Z,99.90
2018-06-15T22:01:01.543Z,99.90
2018-06-15T22:03:30.795Z,99.90
2018-06-15T22:06:06.751Z,99.90
2018-06-15T22:08:35.824Z,99.90
2018-06-15T22:11:05.030Z,99.90
2018-06-15T22:13:34.088Z,99.90
2018-06-15T22:16:03.233Z,99.90
2018-06-15T22:18:32.355Z,99.90
2018-06-15T22:21:01.432Z,99.90
2018-06-15T22:23:30.527Z,99.90
2018-06-15T22:25:59.611Z,99.90
2018-06-15T22:28:28.745Z,99.90
2018-06-15T22:30:57.830Z,99.90
2018-06-15T22:33:27.001Z,99.90
2018-06-15T22:35:56.303Z,99.90
2018-06-15T22:38:25.466Z,99.90
2018-06-15T22:40:54.960Z,99.90
2018-06-15T22:45:52.880Z,99.90
2018-06-15T22:48:21.964Z,99.90
2018-06-15T22:50:51.118Z,99.90
2018-06-15T22:53:20.168Z,99.90
2018-06-15T22:55:49.279Z,99.90
2018-06-15T22:58:18.359Z,99.90
2018-06-15T23:00:47.612Z,99.90
2018-06-15T23:03:16.801Z,99.90
2018-06-15T23:05:45.879Z,99.90
2018-06-15T23:08:14.960Z,99.90
2018-06-15T23:10:44.007Z,99.90
2018-06-15T23:13:13.086Z,99.90
2018-06-15T23:15:42.123Z,99.90
2018-06-15T23:18:11.184Z,99.90
2018-06-15T23:20:40.263Z,99.90
2018-06-15T23:23:09.508Z,99.90
2018-06-15T23:25:38.595Z,99.90
2018-06-15T23:28:07.719Z,99.90
2018-06-15T23:30:36.784Z,99.90
2018-06-15T23:33:05.840Z,99.90
2018-06-15T23:35:34.898Z,99.90
2018-06-15T23:38:04.043Z,99.90
2018-06-15T23:45:30.532Z,99.90
2018-06-15T23:47:59.595Z,99.90
2018-06-15T23:50:28.705Z,99.90
2018-06-15T23:52:57.764Z,99.90
2018-06-15T23:55:26.861Z,99.90
2018-06-15T23:57:55.943Z,99.90
